createdAt,value
2023-04-07T00:00:26.997Z,84.10
2023-04-07T00:02:54.146Z,84.10
2023-04-07T00:05:21.183Z,84.40
2023-04-07T00:07:55.891Z,84.40
2023-04-07T00:10:24.856Z,84.10
2023-04-07T00:12:52.301Z,83.90
2023-04-07T00:15:19.285Z,83.80
2023-04-07T00:17:46.181Z,83.60
2023-04-07T00:20:13.182Z,83.50
2023-04-07T00:22:40.151Z,83.30
2023-04-07T00:25:07.918Z,83.10
2023-04-07T00:27:35.185Z,83.00
2023-04-07T00:30:04.037Z,83.10
2023-04-07T00:32:31.150Z,83.30
2023-04-07T00:34:58.101Z,83.40
2023-04-07T00:37:29.224Z,83.80
2023-04-07T00:39:57.962Z,84.40
2023-04-07T00:42:25.128Z,84.90
2023-04-07T00:44:52.006Z,85.10
2023-04-07T00:47:18.873Z,85.00
2023-04-07T00:49:45.995Z,85.00
2023-04-07T00:52:14.282Z,85.30
2023-04-07T00:54:43.201Z,85.40
2023-04-07T00:57:10.337Z,85.30
2023-04-07T00:59:37.648Z,85.00
2023-04-07T01:02:48.257Z,84.60
2023-04-07T01:05:30.594Z,84.20
2023-04-07T01:08:17.531Z,84.20
2023-04-07T01:11:03.670Z,83.70
2023-04-07T01:13:52.024Z,83.30
2023-04-07T01:16:47.371Z,83.20
2023-04-07T01:19:38.253Z,83.10
2023-04-07T01:22:23.856Z,83.00
2023-04-07T01:25:46.722Z,82.90
2023-04-07T01:28:48.369Z,82.70
2023-04-07T01:31:17.370Z,82.30
2023-04-07T01:33:49.870Z,81.70
2023-04-07T01:36:19.119Z,81.50
2023-04-07T01:38:46.523Z,81.20
2023-04-07T01:41:17.194Z,81.20
2023-04-07T01:43:47.449Z,81.00
2023-04-07T01:46:15.853Z,80.80
2023-04-07T01:48:43.121Z,80.90
2023-04-07T01:51:14.496Z,80.40
2023-04-07T01:53:41.855Z,80.90
2023-04-07T01:56:08.843Z,80.70
2023-04-07T01:58:35.700Z,81.00
2023-04-07T02:01:02.697Z,80.80
2023-04-07T02:04:09.191Z,80.70
2023-04-07T02:06:49.068Z,80.10
2023-04-07T02:09:20.559Z,80.20
2023-04-07T02:11:51.034Z,80.40
2023-04-07T02:14:21.501Z,80.50
2023-04-07T02:16:51.555Z,81.00
2023-04-07T02:19:19.344Z,81.50
2023-04-07T02:21:48.507Z,81.90
2023-04-07T02:24:21.819Z,81.90
2023-04-07T02:26:48.880Z,81.50
2023-04-07T02:29:16.346Z,81.40
2023-04-07T02:31:43.446Z,81.40
2023-04-07T02:34:10.407Z,81.40
2023-04-07T02:36:37.302Z,81.60
2023-04-07T02:39:04.356Z,81.90
2023-04-07T02:41:31.207Z,82.40
2023-04-07T02:43:58.225Z,82.50
2023-04-07T02:46:25.376Z,83.10
2023-04-07T02:48:52.279Z,83.20
2023-04-07T02:51:19.270Z,83.70
2023-04-07T02:53:46.152Z,83.50
2023-04-07T02:56:13.043Z,83.20
2023-04-07T02:58:39.970Z,83.00
2023-04-07T03:01:06.885Z,83.00
2023-04-07T03:03:33.894Z,83.40
2023-04-07T03:06:00.863Z,83.50
2023-04-07T03:08:28.004Z,83.60
2023-04-07T03:10:54.882Z,83.70
2023-04-07T03:13:22.940Z,84.00
2023-04-07T03:15:49.802Z,84.40
2023-04-07T03:18:17.021Z,84.50
2023-04-07T03:20:44.484Z,84.80
2023-04-07T03:23:11.395Z,85.00
2023-04-07T03:25:38.372Z,85.10
2023-04-07T03:28:05.322Z,85.60
2023-04-07T03:30:32.264Z,85.90
2023-04-07T03:32:59.258Z,86.00
2023-04-07T03:35:27.152Z,86.20
2023-04-07T03:37:54.042Z,86.70
2023-04-07T03:40:21.787Z,87.20
2023-04-07T03:42:48.673Z,87.90
2023-04-07T03:45:17.224Z,87.70
2023-04-07T03:47:44.129Z,88.50
2023-04-07T03:50:11.215Z,87.80
2023-04-07T03:52:38.121Z,87.90
2023-04-07T03:55:06.024Z,88.20
2023-04-07T03:57:33.052Z,89.10
2023-04-07T03:59:59.979Z,88.30
2023-04-07T04:02:27.038Z,88.00
2023-04-07T04:04:54.164Z,88.20
2023-04-07T04:07:21.048Z,88.30
2023-04-07T04:09:47.956Z,88.40
2023-04-07T04:12:14.823Z,88.50
2023-04-07T04:14:41.704Z,88.30
2023-04-07T04:17:08.624Z,88.60
2023-04-07T04:19:35.618Z,88.90
2023-04-07T04:22:02.548Z,88.80
2023-04-07T04:24:29.435Z,88.50
2023-04-07T04:26:56.740Z,88.20
2023-04-07T04:29:23.634Z,88.40
2023-04-07T04:31:50.750Z,88.20
2023-04-07T04:34:17.669Z,87.70
2023-04-07T04:36:44.729Z,87.40
2023-04-07T04:39:11.696Z,86.80
2023-04-07T04:41:38.572Z,86.50
2023-04-07T04:44:05.461Z,86.40
2023-04-07T04:46:33.400Z,86.30
2023-04-07T04:49:00.335Z,86.20
2023-04-07T04:51:27.347Z,86.30
2023-04-07T04:53:54.693Z,86.40
2023-04-07T04:56:25.568Z,86.30
2023-04-07T04:58:52.441Z,86.10
2023-04-07T05:01:19.334Z,85.60
2023-04-07T05:03:46.471Z,84.40
2023-04-07T05:06:13.461Z,83.90
2023-04-07T05:08:40.307Z,83.70
2023-04-07T05:11:07.171Z,83.40
2023-04-07T05:13:34.141Z,81.80
2023-04-07T05:16:01.468Z,80.10
2023-04-07T05:18:28.393Z,78.50
2023-04-07T05:20:55.375Z,78.00
2023-04-07T05:23:22.366Z,77.10
2023-04-07T05:25:50.361Z,76.90
2023-04-07T05:28:17.295Z,76.80
2023-04-07T05:30:44.183Z,75.80
2023-04-07T05:33:11.452Z,76.10
2023-04-07T05:35:38.291Z,76.60
2023-04-07T05:38:05.343Z,75.40
2023-04-07T05:40:32.171Z,75.50
2023-04-07T05:42:59.154Z,74.40
2023-04-07T05:45:26.096Z,72.70
2023-04-07T05:47:53.070Z,72.10
2023-04-07T05:50:20.208Z,70.70
2023-04-07T05:52:47.110Z,69.80
2023-04-07T05:55:14.006Z,69.10
2023-04-07T05:57:41.671Z,69.10
2023-04-07T06:00:09.562Z,68.70
2023-04-07T06:02:37.060Z,67.90
2023-04-07T06:05:04.427Z,68.00
2023-04-07T06:07:31.289Z,67.80
2023-04-07T06:09:58.430Z,67.50
2023-04-07T06:12:25.332Z,66.50
2023-04-07T06:14:55.694Z,65.70
2023-04-07T06:17:24.006Z,65.30
2023-04-07T06:19:51.128Z,64.90
2023-04-07T06:22:17.979Z,64.30
2023-04-07T06:24:44.824Z,64.40
2023-04-07T06:27:11.759Z,64.60
2023-04-07T06:29:38.838Z,63.70
2023-04-07T06:32:06.604Z,63.50
2023-04-07T06:34:33.490Z,63.70
2023-04-07T06:37:01.476Z,63.90
2023-04-07T06:39:30.160Z,63.70
2023-04-07T06:41:57.657Z,64.00
2023-04-07T06:44:24.562Z,63.70
2023-04-07T06:46:53.218Z,63.50
2023-04-07T06:49:20.402Z,63.10
2023-04-07T06:51:47.504Z,63.50
2023-04-07T06:54:14.804Z,62.20
2023-04-07T06:56:43.439Z,62.00
2023-04-07T06:59:10.961Z,61.60
2023-04-07T07:01:38.144Z,61.60
2023-04-07T07:04:08.181Z,60.60
2023-04-07T07:06:35.292Z,59.10
2023-04-07T07:09:03.099Z,58.70
2023-04-07T07:11:30.399Z,58.00
2023-04-07T07:13:57.318Z,56.80
2023-04-07T07:16:24.189Z,55.90
2023-04-07T07:18:51.573Z,55.30
2023-04-07T07:21:21.018Z,54.90
2023-04-07T07:23:49.458Z,54.80
2023-04-07T07:26:16.723Z,54.20
2023-04-07T07:28:43.668Z,54.00
2023-04-07T07:31:15.638Z,53.30
2023-04-07T07:33:45.796Z,51.30
2023-04-07T07:36:13.096Z,50.70
2023-04-07T07:38:40.631Z,50.80
2023-04-07T07:41:08.265Z,51.10
2023-04-07T07:43:35.439Z,49.50
2023-04-07T07:46:02.459Z,50.00
2023-04-07T07:48:29.434Z,48.60
2023-04-07T07:50:56.928Z,48.10
2023-04-07T07:53:24.213Z,48.90
2023-04-07T07:55:51.215Z,48.90
2023-04-07T07:58:18.148Z,48.00
2023-04-07T08:03:46.681Z,47.70
2023-04-07T08:06:14.327Z,47.30
2023-04-07T08:08:41.206Z,47.00
2023-04-07T08:11:08.358Z,47.30
2023-04-07T08:13:35.330Z,46.40
2023-04-07T08:16:02.438Z,47.10
2023-04-07T08:18:29.318Z,46.20
2023-04-07T08:20:57.443Z,45.50
2023-04-07T08:23:24.433Z,45.20
2023-04-07T08:25:51.356Z,44.90
2023-04-07T08:28:18.246Z,44.80
2023-04-07T08:30:45.444Z,44.40
2023-04-07T08:33:12.337Z,44.10
2023-04-07T08:35:39.201Z,44.00
2023-04-07T08:38:07.673Z,43.60
2023-04-07T08:40:34.947Z,43.30
2023-04-07T08:43:10.506Z,41.70
2023-04-07T08:45:42.414Z,42.00
2023-04-07T08:48:25.632Z,41.80
2023-04-07T08:50:54.626Z,41.60
2023-04-07T08:53:37.723Z,40.20
2023-04-07T08:56:06.663Z,39.50
2023-04-07T08:58:36.127Z,39.90
2023-04-07T09:01:08.759Z,39.80
2023-04-07T09:03:36.594Z,40.70
2023-04-07T09:06:04.268Z,41.60
2023-04-07T09:08:31.160Z,42.40
2023-04-07T09:10:58.833Z,43.90
2023-04-07T09:13:25.944Z,44.60
2023-04-07T09:15:52.999Z,44.70
2023-04-07T09:18:20.494Z,43.80
2023-04-07T09:21:04.286Z,43.90
2023-04-07T09:23:40.322Z,44.10
2023-04-07T09:26:21.949Z,42.30
2023-04-07T09:29:00.824Z,42.30
2023-04-07T09:31:51.981Z,43.00
2023-04-07T09:34:33.174Z,43.40
2023-04-07T09:37:01.338Z,41.60
2023-04-07T09:39:29.289Z,39.70
2023-04-07T09:41:56.965Z,39.20
2023-04-07T09:44:25.925Z,39.00
2023-04-07T09:46:58.980Z,37.20
2023-04-07T09:49:28.063Z,36.20
2023-04-07T09:52:07.483Z,36.50
2023-04-07T09:54:42.489Z,35.90
2023-04-07T09:57:13.511Z,35.60
2023-04-07T09:59:45.010Z,35.90
2023-04-07T10:02:13.000Z,35.30
2023-04-07T10:04:41.220Z,35.90
2023-04-07T10:07:08.220Z,36.30
2023-04-07T10:09:35.297Z,35.50
2023-04-07T10:12:04.142Z,34.80
2023-04-07T10:14:32.521Z,35.60
2023-04-07T10:17:01.521Z,35.70
2023-04-07T10:19:35.892Z,35.00
2023-04-07T10:22:06.846Z,36.00
2023-04-07T10:24:57.302Z,36.70
2023-04-07T10:27:50.529Z,36.80
2023-04-07T10:30:28.880Z,36.30
2023-04-07T10:32:56.917Z,37.50
2023-04-07T10:35:26.265Z,36.00
2023-04-07T10:38:22.572Z,35.30
2023-04-07T10:40:49.491Z,35.90
2023-04-07T10:43:41.730Z,36.40
2023-04-07T10:46:08.671Z,36.00
2023-04-07T10:48:36.184Z,36.20
2023-04-07T10:51:06.134Z,37.20
2023-04-07T10:53:33.933Z,37.50
2023-04-07T10:56:01.134Z,37.00
2023-04-07T10:58:32.666Z,37.80
2023-04-07T11:01:14.796Z,38.50
2023-04-07T11:03:55.997Z,39.00
2023-04-07T11:06:24.530Z,38.80
2023-04-07T11:08:51.450Z,38.50
2023-04-07T11:11:38.845Z,38.30
2023-04-07T11:14:06.651Z,38.40
2023-04-07T11:16:43.640Z,37.00
2023-04-07T11:19:11.263Z,38.40
2023-04-07T11:21:38.834Z,38.10
2023-04-07T11:24:06.353Z,38.00
2023-04-07T11:26:42.077Z,37.10
2023-04-07T11:29:10.253Z,37.30
2023-04-07T11:31:38.595Z,37.00
2023-04-07T11:34:06.032Z,36.30
2023-04-07T11:36:41.865Z,36.30
2023-04-07T11:39:22.443Z,36.00
2023-04-07T11:41:51.027Z,36.50
2023-04-07T11:44:18.205Z,35.90
2023-04-07T11:47:02.049Z,35.80
2023-04-07T11:49:29.495Z,35.20
2023-04-07T11:52:07.104Z,34.10
2023-04-07T11:54:43.241Z,32.50
2023-04-07T11:57:12.645Z,31.70
2023-04-07T11:59:41.607Z,30.70
2023-04-07T12:02:09.361Z,29.60
2023-04-07T12:04:39.753Z,29.20
2023-04-07T12:07:12.221Z,28.80
2023-04-07T12:09:40.079Z,28.80
2023-04-07T12:12:08.489Z,29.00
2023-04-07T12:14:37.009Z,27.90
2023-04-07T12:17:04.412Z,28.80
2023-04-07T12:19:35.422Z,30.00
2023-04-07T12:22:02.378Z,31.40
2023-04-07T12:24:31.118Z,34.00
2023-04-07T12:26:58.085Z,35.90
2023-04-07T12:29:25.008Z,36.70
2023-04-07T12:31:51.896Z,37.70
2023-04-07T12:34:19.197Z,37.40
2023-04-07T12:36:46.103Z,37.20
2023-04-07T12:39:13.051Z,37.40
2023-04-07T12:41:42.780Z,38.20
2023-04-07T12:44:10.235Z,38.30
2023-04-07T12:46:37.203Z,37.80
2023-04-07T12:49:04.082Z,37.40
2023-04-07T12:51:33.318Z,37.50
2023-04-07T12:54:00.806Z,37.90
2023-04-07T12:56:28.586Z,38.70
2023-04-07T12:58:55.519Z,40.70
2023-04-07T13:01:22.557Z,41.50
2023-04-07T13:03:49.734Z,41.80
2023-04-07T13:06:17.498Z,41.90
2023-04-07T13:08:44.431Z,42.60
2023-04-07T13:11:11.496Z,42.00
2023-04-07T13:13:38.347Z,41.40
2023-04-07T13:16:05.593Z,41.80
2023-04-07T13:18:32.474Z,41.90
2023-04-07T13:21:30.631Z,41.40
2023-04-07T13:23:46.460Z,41.10
2023-04-07T13:26:13.339Z,41.10
2023-04-07T13:28:40.355Z,40.90
2023-04-07T13:31:07.686Z,40.60
2023-04-07T13:33:35.369Z,40.00
2023-04-07T13:36:02.341Z,39.50
2023-04-07T13:38:29.547Z,39.50
2023-04-07T13:40:56.429Z,39.20
2023-04-07T13:43:23.296Z,39.10
2023-04-07T13:45:52.243Z,38.70
2023-04-07T13:48:19.158Z,39.00
2023-04-07T13:50:46.042Z,39.30
2023-04-07T13:53:13.064Z,39.50
2023-04-07T13:55:39.955Z,39.70
2023-04-07T13:58:07.164Z,40.30
2023-04-07T14:00:35.713Z,40.90
2023-04-07T14:03:02.788Z,41.70
2023-04-07T14:05:29.810Z,41.70
2023-04-07T14:07:56.730Z,42.10
2023-04-07T14:10:23.646Z,42.30
2023-04-07T14:12:50.584Z,42.80
2023-04-07T14:15:18.777Z,43.00
2023-04-07T14:17:45.989Z,43.20
2023-04-07T14:20:12.984Z,43.30
2023-04-07T14:22:39.869Z,42.60
2023-04-07T14:25:08.080Z,42.80
2023-04-07T14:27:35.254Z,43.30
2023-04-07T14:30:02.221Z,42.90
2023-04-07T14:32:29.982Z,43.40
2023-04-07T14:35:02.518Z,41.40
2023-04-07T14:37:29.868Z,40.20
2023-04-07T14:42:29.514Z,38.20
2023-04-07T14:44:56.594Z,38.10
2023-04-07T14:47:23.621Z,38.00
2023-04-07T14:49:53.192Z,38.20
2023-04-07T14:52:21.678Z,37.80
2023-04-07T14:54:48.747Z,37.30
2023-04-07T14:57:17.513Z,38.40
2023-04-07T14:59:44.576Z,39.60
2023-04-07T15:02:12.534Z,40.40
2023-04-07T15:04:39.804Z,39.20
2023-04-07T15:07:06.806Z,37.40
2023-04-07T15:09:33.768Z,37.00
2023-04-07T15:12:00.904Z,36.50
2023-04-07T15:14:28.373Z,35.70
2023-04-07T15:16:55.306Z,35.00
2023-04-07T15:19:22.188Z,35.40
2023-04-07T15:21:49.111Z,35.40
2023-04-07T15:24:16.564Z,35.90
2023-04-07T15:26:43.782Z,35.10
2023-04-07T15:29:10.797Z,34.70
2023-04-07T15:31:37.900Z,35.00
2023-04-07T15:34:05.544Z,35.00
2023-04-07T15:36:32.485Z,35.10
2023-04-07T15:39:05.234Z,35.90
2023-04-07T15:41:33.301Z,37.30
2023-04-07T15:44:01.400Z,38.70
2023-04-07T15:46:29.444Z,39.30
2023-04-07T15:48:56.319Z,39.70
2023-04-07T15:51:23.795Z,39.70
2023-04-07T15:53:50.828Z,40.50
2023-04-07T15:56:17.864Z,40.70
2023-04-07T15:58:45.824Z,40.50
2023-04-07T16:01:13.050Z,41.30
2023-04-07T16:03:40.091Z,42.30
2023-04-07T16:06:07.053Z,41.90
2023-04-07T16:08:33.966Z,41.90
2023-04-07T16:11:00.974Z,42.80
2023-04-07T16:13:27.964Z,45.00
2023-04-07T16:15:58.385Z,45.40
2023-04-07T16:18:25.495Z,45.70
2023-04-07T16:20:52.521Z,46.20
2023-04-07T16:23:19.381Z,46.20
2023-04-07T16:25:46.377Z,46.60
2023-04-07T16:28:13.260Z,47.40
2023-04-07T16:30:40.279Z,47.20
2023-04-07T16:33:07.385Z,48.40
2023-04-07T16:35:34.480Z,48.90
2023-04-07T16:38:05.767Z,48.80
2023-04-07T16:40:33.241Z,49.10
2023-04-07T16:43:00.152Z,49.30
2023-04-07T16:45:27.049Z,49.10
2023-04-07T16:47:53.995Z,49.20
2023-04-07T16:50:21.407Z,49.70
2023-04-07T16:52:48.292Z,50.40
2023-04-07T16:55:15.302Z,50.80
2023-04-07T16:57:42.331Z,51.20
2023-04-07T17:00:10.368Z,51.40
2023-04-07T17:02:37.468Z,51.40
2023-04-07T17:05:04.965Z,51.80
2023-04-07T17:07:31.842Z,52.40
2023-04-07T17:09:58.912Z,52.90
2023-04-07T17:12:26.840Z,53.00
2023-04-07T17:14:53.740Z,53.10
2023-04-07T17:17:20.834Z,53.50
2023-04-07T17:19:47.722Z,53.10
2023-04-07T17:22:14.607Z,53.70
2023-04-07T17:24:41.453Z,54.20
2023-04-07T17:27:08.435Z,54.70
2023-04-07T17:29:35.400Z,55.40
2023-04-07T17:32:02.565Z,56.50
2023-04-07T17:34:29.611Z,57.30
2023-04-07T17:36:56.512Z,57.90
2023-04-07T17:39:25.885Z,58.60
2023-04-07T17:41:54.537Z,58.90
2023-04-07T17:44:21.579Z,59.60
2023-04-07T17:46:48.672Z,60.00
2023-04-07T17:49:15.629Z,60.70
2023-04-07T17:51:42.569Z,61.20
2023-04-07T17:54:09.426Z,61.70
2023-04-07T17:56:37.295Z,62.10
2023-04-07T17:59:04.344Z,62.80
2023-04-07T18:01:31.291Z,63.20
2023-04-07T18:03:58.331Z,63.60
2023-04-07T18:06:25.298Z,64.20
2023-04-07T18:08:52.169Z,64.60
2023-04-07T18:11:19.066Z,64.90
2023-04-07T18:13:49.548Z,65.50
2023-04-07T18:16:17.708Z,66.10
2023-04-07T18:18:47.581Z,66.50
2023-04-07T18:21:14.473Z,66.90
2023-04-07T18:23:41.472Z,67.70
2023-04-07T18:26:08.374Z,67.30
2023-04-07T18:28:35.356Z,67.60
2023-04-07T18:31:08.030Z,67.80
2023-04-07T18:33:36.410Z,68.00
2023-04-07T18:36:07.632Z,68.30
2023-04-07T18:38:36.278Z,68.60
2023-04-07T18:41:05.761Z,68.90
2023-04-07T18:43:32.605Z,69.20
2023-04-07T18:45:59.489Z,69.30
2023-04-07T18:48:26.955Z,69.60
2023-04-07T18:50:56.420Z,70.20
2023-04-07T18:53:25.213Z,70.70
2023-04-07T18:55:52.330Z,71.30
2023-04-07T18:58:19.853Z,71.40
2023-04-07T19:00:52.909Z,71.50
2023-04-07T19:03:21.653Z,71.70
2023-04-07T19:05:52.309Z,71.90
2023-04-07T19:08:19.690Z,71.90
2023-04-07T19:10:46.536Z,72.10
2023-04-07T19:13:15.578Z,72.30
2023-04-07T19:15:46.039Z,72.40
2023-04-07T19:18:13.280Z,72.90
2023-04-07T19:20:40.455Z,74.20
2023-04-07T19:23:07.836Z,75.60
2023-04-07T19:25:35.060Z,76.00
2023-04-07T19:28:03.026Z,76.50
2023-04-07T19:30:30.026Z,77.40
2023-04-07T19:32:56.908Z,78.40
2023-04-07T19:35:23.811Z,79.30
2023-04-07T19:37:52.211Z,80.50
2023-04-07T19:40:19.595Z,81.20
2023-04-07T19:42:47.248Z,81.50
2023-04-07T19:45:14.130Z,81.50
2023-04-07T19:47:43.352Z,81.20
2023-04-07T19:50:14.409Z,80.90
2023-04-07T19:52:44.371Z,81.00
2023-04-07T19:55:13.907Z,81.00
2023-04-07T19:57:41.067Z,81.50
2023-04-07T20:00:09.820Z,81.80
2023-04-07T20:02:37.437Z,82.50
2023-04-07T20:05:05.576Z,82.80
2023-04-07T20:07:33.563Z,83.30
2023-04-07T20:10:00.964Z,83.70
2023-04-07T20:12:27.828Z,84.50
2023-04-07T20:14:54.737Z,85.40
2023-04-07T20:17:21.606Z,86.30
2023-04-07T20:19:48.509Z,85.80
2023-04-07T20:22:15.485Z,85.80
2023-04-07T20:24:42.399Z,85.70
2023-04-07T20:27:09.266Z,85.20
2023-04-07T20:29:36.555Z,85.20
2023-04-07T20:32:04.475Z,85.30
2023-04-07T20:34:31.386Z,85.20
2023-04-07T20:36:58.455Z,84.70
2023-04-07T20:39:25.362Z,83.90
2023-04-07T20:41:52.257Z,83.40
2023-04-07T20:44:19.103Z,83.30
2023-04-07T20:46:46.738Z,83.50
2023-04-07T20:49:13.701Z,84.00
2023-04-07T20:51:40.824Z,84.60
2023-04-07T20:54:07.754Z,84.90
2023-04-07T20:56:34.747Z,84.60
2023-04-07T20:59:01.656Z,85.00
2023-04-07T21:01:28.568Z,85.20
2023-04-07T21:03:55.636Z,85.50
2023-04-07T21:06:22.535Z,85.40
2023-04-07T21:08:49.675Z,86.10
2023-04-07T21:11:16.718Z,85.70
2023-04-07T21:13:43.661Z,86.00
2023-04-07T21:16:10.909Z,86.70
2023-04-07T21:18:38.145Z,87.50
2023-04-07T21:21:05.546Z,88.30
2023-04-07T21:23:32.423Z,89.10
2023-04-07T21:26:05.347Z,89.50
2023-04-07T21:28:32.529Z,90.40
2023-04-07T21:30:59.610Z,90.30
2023-04-07T21:33:26.758Z,90.40
2023-04-07T21:35:55.015Z,90.70
2023-04-07T21:38:21.967Z,90.90
2023-04-07T21:40:48.851Z,91.20
2023-04-07T21:43:15.916Z,92.20
2023-04-07T21:45:42.798Z,92.90
2023-04-07T21:48:09.869Z,93.20
2023-04-07T21:50:37.116Z,93.70
2023-04-07T21:53:04.077Z,94.30
2023-04-07T21:55:31.351Z,95.10
2023-04-07T21:57:58.263Z,95.40
2023-04-07T22:00:25.639Z,95.60
2023-04-07T22:02:53.014Z,95.70
2023-04-07T22:05:20.955Z,95.70
2023-04-07T22:07:48.307Z,95.40
2023-04-07T22:10:15.570Z,95.10
2023-04-07T22:12:42.632Z,94.70
2023-04-07T22:15:12.652Z,94.30
2023-04-07T22:17:40.174Z,93.90
2023-04-07T22:20:10.693Z,93.60
2023-04-07T22:22:38.041Z,93.40
2023-04-07T22:25:06.620Z,93.10
2023-04-07T22:27:33.521Z,92.90
2023-04-07T22:30:00.508Z,92.70
2023-04-07T22:32:27.352Z,92.80
2023-04-07T22:34:54.683Z,93.00
2023-04-07T22:37:21.744Z,93.00
2023-04-07T22:39:48.625Z,92.90
2023-04-07T22:42:15.543Z,92.90
2023-04-07T22:44:42.387Z,93.30
2023-04-07T22:47:09.433Z,93.50
2023-04-07T22:49:36.646Z,93.80
2023-04-07T22:52:03.617Z,93.90
2023-04-07T22:54:30.557Z,94.10
2023-04-07T22:56:57.428Z,94.00
2023-04-07T22:59:24.504Z,93.80
2023-04-07T23:01:51.420Z,93.80
2023-04-07T23:04:18.319Z,93.90
2023-04-07T23:06:45.319Z,94.10
2023-04-07T23:09:12.164Z,94.50
2023-04-07T23:11:39.034Z,94.80
2023-04-07T23:14:06.115Z,95.00
2023-04-07T23:16:34.457Z,95.10
2023-04-07T23:19:01.476Z,95.30
2023-04-07T23:21:31.220Z,95.40
2023-04-07T23:23:58.553Z,95.40
2023-04-07T23:26:26.613Z,95.30
2023-04-07T23:28:53.527Z,95.20
2023-04-07T23:31:20.507Z,95.20
2023-04-07T23:33:47.753Z,95.30
2023-04-07T23:36:15.107Z,95.40
2023-04-07T23:38:42.104Z,95.50
2023-04-07T23:41:09.094Z,95.70
2023-04-07T23:43:36.028Z,95.70
2023-04-07T23:46:03.129Z,95.60
2023-04-07T23:48:31.366Z,95.40
2023-04-07T23:50:59.821Z,95.20
2023-04-07T23:53:26.952Z,95.10
2023-04-07T23:55:54.019Z,94.90
2023-04-07T23:58:20.976Z,94.70
